Terminal Aerodrome Forecast
Issued by NWS

Home | Current Version | Previous Version | Text Only | Print | Product List | Glossary On
Versions: 1 2 3 4 5 6 7 8 9 10 11 12 13 14 15 16 17 18 19 20
669
FTUS41 KCAR 210535
TAFBHB
TAF
KBHB 210535Z 2106/2206 03010KT P6SM SCT025 BKN040
      TEMPO 2106/2108 BKN025
     FM210800 03012G22KT P6SM BKN250=

USA.gov is the U.S. government's official web portal to all federal, state and local government web resources and services.